Time;durP1;ratioP1;P1;durP2;ratioP2;P2;SDS_P1;SDS_P2;PMS_P1;PMS_P2;Temp;Humidity;BMP_temperature;BMP_pressure;BME280_temperature;BME280_humidity;BME280_pressure;Samples;Min_cycle;Max_cycle;Signal;HPM_P1;HPM_P2
2022/03/27 00:02:08;;;;;;;;;;;9.30;53.80;;;;;;5078368;28;20449;-75
2022/03/27 00:04:34;;;;;;;;;;;9.20;54.00;;;;;;5067464;28;20015;-75
2022/03/27 00:07:00;;;;;;;;;;;9.10;53.80;;;;;;5079612;28;19912;-75
2022/03/27 00:09:25;;;;;;;;;;;9.10;54.20;;;;;;5061779;28;19909;-75
2022/03/27 00:11:51;;;;;;;;;;;9.10;53.90;;;;;;5061911;28;19915;-75
2022/03/27 00:14:16;;;;;;;;;;;9.10;53.30;;;;;;5061825;28;19909;-75
2022/03/27 00:16:42;;;;;;;;;;;9.00;53.70;;;;;;5079527;28;19915;-75
2022/03/27 00:19:08;;;;;;;;;;;9.00;53.80;;;;;;5079560;28;19915;-75
2022/03/27 00:21:34;;;;;;;;;;;8.90;53.70;;;;;;5079559;28;19938;-75
2022/03/27 00:23:59;;;;;;;;;;;8.90;54.00;;;;;;5079341;28;19923;-75
2022/03/27 00:26:25;;;;;;;;;;;8.90;55.00;;;;;;5079407;28;19909;-75
2022/03/27 00:28:51;;;;;;;;;;;8.90;55.10;;;;;;5069072;28;19934;-75
2022/03/27 00:31:17;;;;;;;;;;;8.90;55.10;;;;;;5079294;28;19908;-75
2022/03/27 00:33:43;;;;;;;;;;;8.80;55.30;;;;;;5060932;28;19908;-75
2022/03/27 00:36:10;;;;;;;;;;;8.80;55.30;;;;;;5079210;28;19916;-75
2022/03/27 00:38:36;;;;;;;;;;;8.70;54.60;;;;;;5079277;28;19915;-75
2022/03/27 00:41:05;;;;;;;;;;;8.70;54.80;;;;;;5060791;28;20010;-75
2022/03/27 00:43:32;;;;;;;;;;;8.70;54.90;;;;;;5079043;28;19912;-75
2022/03/27 00:45:57;;;;;;;;;;;8.60;55.10;;;;;;5078566;28;20006;-75
2022/03/27 00:48:23;;;;;;;;;;;8.60;55.30;;;;;;5078923;28;19964;-75
2022/03/27 00:50:50;;;;;;;;;;;8.50;55.60;;;;;;5061098;28;20260;-74
2022/03/27 00:53:16;;;;;;;;;;;8.50;55.30;;;;;;5079113;28;19908;-75
2022/03/27 00:55:44;;;;;;;;;;;8.40;55.70;;;;;;5060902;28;20017;-75
2022/03/27 00:58:10;;;;;;;;;;;8.40;56.20;;;;;;5078850;28;19995;-76
2022/03/27 01:00:41;;;;;;;;;;;8.40;56.30;;;;;;5078730;28;19908;-75
2022/03/27 01:03:07;;;;;;;;;;;8.30;56.20;;;;;;5069380;28;19920;-76
2022/03/27 01:05:33;;;;;;;;;;;8.30;56.20;;;;;;5074562;28;19928;-75
2022/03/27 01:08:05;;;;;;;;;;;8.30;56.60;;;;;;5078713;28;19908;-76
2022/03/27 01:10:31;;;;;;;;;;;8.20;56.10;;;;;;5078335;28;19931;-76
2022/03/27 01:12:57;;;;;;;;;;;8.20;56.20;;;;;;5078603;28;20331;-75
2022/03/27 01:15:26;;;;;;;;;;;8.10;56.30;;;;;;5060447;28;19936;-75
2022/03/27 01:17:51;;;;;;;;;;;8.10;56.10;;;;;;5078401;28;19914;-76
2022/03/27 01:20:22;;;;;;;;;;;8.10;56.00;;;;;;5060317;28;19995;-75
2022/03/27 01:22:48;;;;;;;;;;;8.10;55.90;;;;;;5078330;28;19912;-75
2022/03/27 01:25:13;;;;;;;;;;;8.00;56.40;;;;;;5078059;28;19908;-75
2022/03/27 01:27:39;;;;;;;;;;;8.00;56.90;;;;;;5069354;28;19916;-75
2022/03/27 01:30:05;;;;;;;;;;;7.90;56.90;;;;;;5076854;28;19934;-76
2022/03/27 01:32:31;;;;;;;;;;;7.90;56.50;;;;;;5059890;28;19909;-75
2022/03/27 01:34:56;;;;;;;;;;;7.90;56.70;;;;;;5077896;28;19962;-75
2022/03/27 01:37:22;;;;;;;;;;;7.80;56.30;;;;;;5060187;28;19915;-75
2022/03/27 01:39:48;;;;;;;;;;;7.80;56.30;;;;;;5077674;28;19908;-75
2022/03/27 01:42:13;;;;;;;;;;;7.80;56.50;;;;;;5078200;28;19908;-75
2022/03/27 01:44:39;;;;;;;;;;;7.70;56.10;;;;;;5077808;28;19912;-75
2022/03/27 01:47:05;;;;;;;;;;;7.70;56.00;;;;;;5077748;28;20058;-75
2022/03/27 01:49:30;;;;;;;;;;;7.70;56.30;;;;;;5077832;28;19908;-75
2022/03/27 01:51:56;;;;;;;;;;;7.70;56.30;;;;;;5077970;28;19944;-75
2022/03/27 01:54:22;;;;;;;;;;;7.60;55.80;;;;;;5077747;28;20279;-75
2022/03/27 01:56:48;;;;;;;;;;;7.60;55.70;;;;;;5077915;28;19908;-75
2022/03/27 01:59:14;;;;;;;;;;;7.60;55.90;;;;;;5076993;28;20004;-75
2022/03/27 02:01:39;;;;;;;;;;;7.60;55.90;;;;;;5077968;28;19909;-75
2022/03/27 02:04:06;;;;;;;;;;;7.60;59.00;;;;;;5063997;28;19917;-75
2022/03/27 02:06:32;;;;;;;;;;;7.50;56.90;;;;;;5077942;28;20402;-75
2022/03/27 02:08:59;;;;;;;;;;;7.50;56.70;;;;;;5077553;28;19912;-75
2022/03/27 02:11:25;;;;;;;;;;;7.50;56.50;;;;;;5077956;28;19930;-75
2022/03/27 02:13:51;;;;;;;;;;;7.40;56.00;;;;;;5077621;28;20003;-76
2022/03/27 02:16:17;;;;;;;;;;;7.40;55.80;;;;;;5059819;28;19958;-75
2022/03/27 02:18:42;;;;;;;;;;;7.40;56.50;;;;;;5077318;28;20017;-75
2022/03/27 02:21:08;;;;;;;;;;;7.40;56.50;;;;;;5077908;28;19913;-75
2022/03/27 02:23:34;;;;;;;;;;;7.30;56.40;;;;;;5077413;28;20380;-75
2022/03/27 02:26:00;;;;;;;;;;;7.30;56.50;;;;;;5077486;28;19940;-75
2022/03/27 02:28:25;;;;;;;;;;;7.30;56.70;;;;;;5066750;28;19915;-75
2022/03/27 02:30:52;;;;;;;;;;;7.20;58.50;;;;;;5077591;28;19912;-75
2022/03/27 02:33:17;;;;;;;;;;;7.20;59.50;;;;;;5077039;28;19908;-75
2022/03/27 02:35:43;;;;;;;;;;;7.20;59.50;;;;;;5077351;28;20267;-75
2022/03/27 02:38:09;;;;;;;;;;;7.20;62.30;;;;;;5077323;28;19909;-75
2022/03/27 02:40:35;;;;;;;;;;;7.20;62.20;;;;;;5077307;28;19908;-75
2022/03/27 02:43:01;;;;;;;;;;;7.20;62.40;;;;;;5059431;28;19916;-75
2022/03/27 02:45:27;;;;;;;;;;;7.20;62.10;;;;;;5077414;28;20375;-75
2022/03/27 02:47:54;;;;;;;;;;;7.10;60.10;;;;;;5076787;28;19921;-75
2022/03/27 02:50:20;;;;;;;;;;;7.10;59.00;;;;;;5077581;28;20276;-75
2022/03/27 02:52:45;;;;;;;;;;;7.10;58.80;;;;;;5077297;28;19915;-75
2022/03/27 02:55:11;;;;;;;;;;;7.00;58.50;;;;;;5077388;28;19958;-75
2022/03/27 02:57:37;;;;;;;;;;;7.00;58.30;;;;;;5059561;28;19940;-75
2022/03/27 03:00:04;;;;;;;;;;;6.90;57.60;;;;;;5059551;28;19908;-75
2022/03/27 03:02:30;;;;;;;;;;;6.90;57.20;;;;;;5072885;28;20388;-75
2022/03/27 03:04:55;;;;;;;;;;;6.90;58.00;;;;;;5068034;28;19919;-75
2022/03/27 03:07:21;;;;;;;;;;;6.90;60.00;;;;;;5077058;28;19957;-75
2022/03/27 03:09:47;;;;;;;;;;;6.90;58.90;;;;;;5079077;28;19909;-75
2022/03/27 03:12:12;;;;;;;;;;;6.80;57.90;;;;;;5062922;28;19908;-76
2022/03/27 03:14:38;;;;;;;;;;;6.80;57.60;;;;;;5063265;28;19915;-75
2022/03/27 03:17:04;;;;;;;;;;;6.80;57.40;;;;;;5062461;28;19908;-75
2022/03/27 03:19:30;;;;;;;;;;;6.70;57.20;;;;;;5080925;28;19908;-75
2022/03/27 03:21:56;;;;;;;;;;;6.70;57.20;;;;;;5062928;28;19915;-75
2022/03/27 03:24:25;;;;;;;;;;;6.70;57.30;;;;;;5062560;28;19912;-74
2022/03/27 03:26:50;;;;;;;;;;;6.60;57.20;;;;;;5078017;28;19908;-75
2022/03/27 03:29:16;;;;;;;;;;;6.60;57.90;;;;;;5072948;28;19909;-75
2022/03/27 03:31:42;;;;;;;;;;;6.60;57.20;;;;;;5080277;28;19981;-75
2022/03/27 03:34:07;;;;;;;;;;;6.50;57.00;;;;;;5080217;28;20447;-75
2022/03/27 03:36:33;;;;;;;;;;;6.50;57.30;;;;;;5062287;28;19908;-75
2022/03/27 03:38:59;;;;;;;;;;;6.50;56.70;;;;;;5080303;28;19916;-76
2022/03/27 03:41:25;;;;;;;;;;;6.50;58.20;;;;;;5079368;28;19913;-75
2022/03/27 03:43:51;;;;;;;;;;;6.50;58.70;;;;;;5080386;28;20388;-75
2022/03/27 03:46:16;;;;;;;;;;;6.50;58.90;;;;;;5080038;28;19955;-75
2022/03/27 03:48:42;;;;;;;;;;;6.40;58.10;;;;;;5080011;28;20372;-75
2022/03/27 03:51:07;;;;;;;;;;;6.40;57.70;;;;;;5080188;28;19908;-75
2022/03/27 03:53:33;;;;;;;;;;;6.40;59.40;;;;;;5062314;28;19919;-75
2022/03/27 03:55:59;;;;;;;;;;;6.30;58.60;;;;;;5079879;28;19958;-75
2022/03/27 03:58:25;;;;;;;;;;;6.30;58.10;;;;;;5080077;28;19908;-75
2022/03/27 04:00:50;;;;;;;;;;;6.30;57.80;;;;;;5080024;28;19915;-75
2022/03/27 04:03:16;;;;;;;;;;;6.30;57.60;;;;;;5051620;28;19908;-76
2022/03/27 04:05:42;;;;;;;;;;;6.30;58.30;;;;;;5076688;28;19909;-75
2022/03/27 04:08:07;;;;;;;;;;;6.20;58.50;;;;;;5061928;28;19962;-75
2022/03/27 04:10:33;;;;;;;;;;;6.20;57.90;;;;;;5079537;28;19947;-75
2022/03/27 04:12:59;;;;;;;;;;;6.20;58.60;;;;;;5079706;28;19912;-75
2022/03/27 04:15:24;;;;;;;;;;;6.10;57.40;;;;;;5079596;28;19987;-75
2022/03/27 04:17:51;;;;;;;;;;;6.10;57.10;;;;;;5061700;28;19913;-75
2022/03/27 04:20:17;;;;;;;;;;;6.10;57.20;;;;;;5079148;28;20362;-75
2022/03/27 04:22:43;;;;;;;;;;;6.10;57.40;;;;;;5079174;28;19986;-75
2022/03/27 04:25:09;;;;;;;;;;;6.10;57.30;;;;;;5061226;28;19908;-76
2022/03/27 04:27:35;;;;;;;;;;;6.00;57.60;;;;;;5070940;28;20451;-75
2022/03/27 04:30:03;;;;;;;;;;;6.00;58.20;;;;;;5059233;28;20283;-75
2022/03/27 04:32:29;;;;;;;;;;;6.00;58.10;;;;;;5078978;28;19919;-75
2022/03/27 04:34:54;;;;;;;;;;;5.90;58.80;;;;;;5061086;28;20367;-75
2022/03/27 04:37:20;;;;;;;;;;;5.90;58.70;;;;;;5079180;28;19912;-75
2022/03/27 04:39:45;;;;;;;;;;;5.90;59.20;;;;;;5078843;28;20410;-75
2022/03/27 04:42:11;;;;;;;;;;;5.80;59.00;;;;;;5079182;28;19958;-75
2022/03/27 04:44:37;;;;;;;;;;;5.80;59.50;;;;;;5078602;28;20436;-75
2022/03/27 04:47:02;;;;;;;;;;;5.80;59.80;;;;;;5078289;28;20062;-75
2022/03/27 04:49:28;;;;;;;;;;;5.70;59.80;;;;;;5078311;28;20391;-75
2022/03/27 04:51:54;;;;;;;;;;;5.70;60.00;;;;;;5078388;28;19951;-76
2022/03/27 04:54:20;;;;;;;;;;;5.70;60.10;;;;;;5078749;28;19920;-79
2022/03/27 04:56:45;;;;;;;;;;;5.70;59.50;;;;;;5079023;28;20291;-78
2022/03/27 04:59:11;;;;;;;;;;;5.60;60.10;;;;;;5077236;28;19909;-78
2022/03/27 05:01:37;;;;;;;;;;;5.60;60.40;;;;;;5078329;28;19908;-76
2022/03/27 05:04:04;;;;;;;;;;;5.60;60.70;;;;;;5064806;28;19909;-75
2022/03/27 05:06:29;;;;;;;;;;;5.60;60.90;;;;;;5078726;28;19909;-76
2022/03/27 05:08:58;;;;;;;;;;;5.50;60.80;;;;;;5077864;28;19999;-82
2022/03/27 05:11:28;;;;;;;;;;;5.50;61.10;;;;;;5060565;28;19915;-75
2022/03/27 05:13:54;;;;;;;;;;;5.50;61.00;;;;;;5060245;28;19913;-73
2022/03/27 05:16:20;;;;;;;;;;;5.40;60.70;;;;;;5078483;28;20299;-78
2022/03/27 05:18:45;;;;;;;;;;;5.40;60.20;;;;;;5077941;28;19915;-76
2022/03/27 05:21:11;;;;;;;;;;;5.40;60.30;;;;;;5078222;28;19923;-76
2022/03/27 05:23:37;;;;;;;;;;;5.30;60.00;;;;;;5060091;28;19983;-70
2022/03/27 05:26:03;;;;;;;;;;;5.30;60.00;;;;;;5078151;28;20265;-71
2022/03/27 05:28:28;;;;;;;;;;;5.30;59.10;;;;;;5067502;28;19916;-71
2022/03/27 05:30:56;;;;;;;;;;;5.30;60.10;;;;;;5078240;28;19909;-82
2022/03/27 05:33:22;;;;;;;;;;;5.20;59.30;;;;;;5077621;28;19913;-84
2022/03/27 05:35:47;;;;;;;;;;;5.20;60.30;;;;;;5060230;28;19909;-83
2022/03/27 05:38:13;;;;;;;;;;;5.20;59.60;;;;;;5059989;28;19961;-82
2022/03/27 05:40:40;;;;;;;;;;;5.20;59.30;;;;;;5077979;28;20407;-82
2022/03/27 05:43:06;;;;;;;;;;;5.20;59.30;;;;;;5077902;28;19908;-83
2022/03/27 05:45:32;;;;;;;;;;;5.20;60.40;;;;;;5060579;28;19914;-80
2022/03/27 05:47:58;;;;;;;;;;;5.10;60.10;;;;;;5077455;28;19931;-85
2022/03/27 05:50:23;;;;;;;;;;;5.10;60.30;;;;;;5078087;28;19908;-85
2022/03/27 05:52:53;;;;;;;;;;;5.10;60.00;;;;;;5060002;28;20401;-81
2022/03/27 05:55:19;;;;;;;;;;;5.10;60.30;;;;;;5077756;28;19931;-81
2022/03/27 05:57:45;;;;;;;;;;;5.10;60.50;;;;;;5078064;28;19912;-81
2022/03/27 06:00:12;;;;;;;;;;;5.00;61.00;;;;;;5077779;28;20012;-82
2022/03/27 06:02:38;;;;;;;;;;;5.00;61.30;;;;;;5072588;28;19909;-82
2022/03/27 06:05:04;;;;;;;;;;;5.00;61.80;;;;;;5069662;28;19934;-81
2022/03/27 06:07:30;;;;;;;;;;;5.00;62.10;;;;;;5077718;28;19915;-81
2022/03/27 06:09:55;;;;;;;;;;;5.00;61.80;;;;;;5077709;28;19909;-82
2022/03/27 06:12:21;;;;;;;;;;;5.00;61.50;;;;;;5059537;28;19908;-81
2022/03/27 06:14:48;;;;;;;;;;;5.00;61.70;;;;;;5077796;28;19912;-82
2022/03/27 06:17:13;;;;;;;;;;;4.90;61.70;;;;;;5077311;28;20379;-82
2022/03/27 06:19:39;;;;;;;;;;;4.90;61.30;;;;;;5078114;28;19931;-82
2022/03/27 06:22:05;;;;;;;;;;;4.90;61.50;;;;;;5077411;28;19936;-82
2022/03/27 06:24:30;;;;;;;;;;;4.90;61.30;;;;;;5077488;28;19955;-81
2022/03/27 06:26:56;;;;;;;;;;;5.00;60.80;;;;;;5074121;28;19916;-81
2022/03/27 06:29:22;;;;;;;;;;;5.00;61.30;;;;;;5070101;28;19938;-81
2022/03/27 06:31:52;;;;;;;;;;;5.00;61.40;;;;;;5077175;28;19912;-82
2022/03/27 06:34:18;;;;;;;;;;;5.00;61.60;;;;;;5077430;28;19912;-81
2022/03/27 06:36:44;;;;;;;;;;;5.00;61.90;;;;;;5069901;28;19915;-81
2022/03/27 06:39:10;;;;;;;;;;;5.00;62.10;;;;;;5076617;28;20276;-82
2022/03/27 06:41:36;;;;;;;;;;;5.10;62.50;;;;;;5077640;28;19915;-82
2022/03/27 06:44:02;;;;;;;;;;;5.10;62.50;;;;;;5078151;28;19912;-82
2022/03/27 06:46:27;;;;;;;;;;;5.20;62.60;;;;;;5081397;28;19916;-82
2022/03/27 06:48:53;;;;;;;;;;;5.20;61.90;;;;;;5063301;28;19965;-82
2022/03/27 06:51:19;;;;;;;;;;;5.20;61.50;;;;;;5063405;28;19950;-82
2022/03/27 06:53:45;;;;;;;;;;;5.30;61.80;;;;;;5080621;28;19919;-82
2022/03/27 06:56:11;;;;;;;;;;;5.30;61.80;;;;;;5081238;28;19909;-82
2022/03/27 06:58:37;;;;;;;;;;;5.40;61.70;;;;;;5081167;28;19981;-82
2022/03/27 07:03:47;;;;;;;;;;;5.50;61.90;;;;;;5067398;28;19915;-82
2022/03/27 07:06:16;;;;;;;;;;;5.60;61.60;;;;;;5081051;28;19971;-82
2022/03/27 07:08:42;;;;;;;;;;;5.70;64.00;;;;;;5080984;28;19909;-82
2022/03/27 07:11:08;;;;;;;;;;;5.70;62.70;;;;;;5080968;28;20329;-82
2022/03/27 07:13:34;;;;;;;;;;;5.80;62.20;;;;;;5080744;28;19913;-82
2022/03/27 07:15:59;;;;;;;;;;;5.90;62.30;;;;;;5080934;28;19915;-82
2022/03/27 07:18:25;;;;;;;;;;;6.00;62.50;;;;;;5080432;28;19908;-82
2022/03/27 07:20:51;;;;;;;;;;;6.00;62.70;;;;;;5080754;28;19916;-82
2022/03/27 07:23:18;;;;;;;;;;;6.10;62.50;;;;;;5080649;28;19940;-82
2022/03/27 07:25:44;;;;;;;;;;;6.20;63.50;;;;;;5080583;28;19966;-82
2022/03/27 07:28:10;;;;;;;;;;;6.30;67.10;;;;;;5069749;28;20271;-82
2022/03/27 07:30:36;;;;;;;;;;;6.40;67.30;;;;;;5080671;28;19909;-82
2022/03/27 07:33:03;;;;;;;;;;;6.60;70.00;;;;;;5079997;28;19927;-82
2022/03/27 07:35:30;;;;;;;;;;;6.70;69.90;;;;;;5080302;28;19909;-82
2022/03/27 07:37:56;;;;;;;;;;;6.80;71.50;;;;;;5080288;28;20291;-82
2022/03/27 07:40:22;;;;;;;;;;;6.80;69.30;;;;;;5080296;28;19909;-82
2022/03/27 07:42:49;;;;;;;;;;;6.90;69.00;;;;;;5062198;28;19909;-81
2022/03/27 07:45:19;;;;;;;;;;;7.00;70.60;;;;;;5080302;28;19915;-81
2022/03/27 07:47:45;;;;;;;;;;;7.10;68.40;;;;;;5079837;28;19927;-82
2022/03/27 07:50:11;;;;;;;;;;;7.20;67.50;;;;;;5080295;28;20302;-82
2022/03/27 07:52:37;;;;;;;;;;;7.40;67.60;;;;;;5079978;28;20409;-82
2022/03/27 07:55:04;;;;;;;;;;;7.50;68.50;;;;;;5079754;28;19908;-82
2022/03/27 07:57:30;;;;;;;;;;;7.60;68.30;;;;;;5079221;28;19912;-82
2022/03/27 07:59:56;;;;;;;;;;;7.70;67.40;;;;;;5080085;28;20003;-82
2022/03/27 08:02:21;;;;;;;;;;;7.80;66.00;;;;;;5076703;28;19909;-82
2022/03/27 08:04:47;;;;;;;;;;;8.00;64.50;;;;;;5051319;28;19909;-82
2022/03/27 08:07:13;;;;;;;;;;;8.10;64.00;;;;;;5079847;28;19909;-83
2022/03/27 08:09:39;;;;;;;;;;;8.30;63.90;;;;;;5079849;28;20390;-83
2022/03/27 08:12:07;;;;;;;;;;;8.60;64.90;;;;;;5079697;28;19913;-84
2022/03/27 08:14:33;;;;;;;;;;;9.10;67.40;;;;;;5079673;28;19935;-84
2022/03/27 08:16:59;;;;;;;;;;;9.90;68.80;;;;;;5079332;28;20291;-84
2022/03/27 08:19:25;;;;;;;;;;;10.80;69.30;;;;;;5079717;28;19908;-83
2022/03/27 08:21:51;;;;;;;;;;;11.80;69.10;;;;;;5079290;28;20367;-83
2022/03/27 08:24:16;;;;;;;;;;;12.70;68.50;;;;;;5079517;28;19915;-84
2022/03/27 08:26:59;;;;;;;;;;;13.60;67.70;;;;;;5077971;28;19961;-86
2022/03/27 08:29:26;;;;;;;;;;;14.30;67.00;;;;;;5072394;28;20046;-85
2022/03/27 08:31:52;;;;;;;;;;;15.20;66.80;;;;;;5079066;28;19993;-85
2022/03/27 08:34:18;;;;;;;;;;;15.80;65.30;;;;;;5079181;28;19913;-86
2022/03/27 08:36:44;;;;;;;;;;;16.50;63.50;;;;;;5061487;28;19915;-85
2022/03/27 08:39:10;;;;;;;;;;;17.10;62.70;;;;;;5079004;28;20808;-85
2022/03/27 08:41:36;;;;;;;;;;;17.70;62.00;;;;;;5079285;28;19908;-85
2022/03/27 08:44:02;;;;;;;;;;;18.20;59.50;;;;;;5079155;28;20004;-84
2022/03/27 08:46:29;;;;;;;;;;;18.70;58.10;;;;;;5078921;28;19971;-84
2022/03/27 08:48:59;;;;;;;;;;;19.10;57.60;;;;;;5078813;28;19954;-84
2022/03/27 08:51:29;;;;;;;;;;;19.60;57.10;;;;;;5079069;28;19930;-84
2022/03/27 08:54:05;;;;;;;;;;;20.10;57.00;;;;;;5078049;28;19912;-84
2022/03/27 08:56:32;;;;;;;;;;;20.60;55.80;;;;;;5078874;28;20051;-84
2022/03/27 08:58:59;;;;;;;;;;;21.10;56.40;;;;;;5078598;28;20496;-85
2022/03/27 09:01:25;;;;;;;;;;;21.60;56.10;;;;;;5078952;28;19909;-85
2022/03/27 09:03:51;;;;;;;;;;;22.00;54.20;;;;;;5065067;28;19913;-86
2022/03/27 09:06:17;;;;;;;;;;;22.40;53.20;;;;;;5078748;28;19909;-85
2022/03/27 09:08:42;;;;;;;;;;;22.80;52.30;;;;;;5060490;28;19909;-86
2022/03/27 09:11:15;;;;;;;;;;;23.10;51.00;;;;;;5078661;28;19915;-80
2022/03/27 09:13:42;;;;;;;;;;;23.50;49.30;;;;;;5078414;28;20268;-81
2022/03/27 09:16:08;;;;;;;;;;;23.70;49.10;;;;;;5078637;28;20359;-77
2022/03/27 09:18:44;;;;;;;;;;;23.90;48.90;;;;;;5060226;28;19931;-76
2022/03/27 09:21:10;;;;;;;;;;;24.30;46.80;;;;;;5078317;28;20013;-76
2022/03/27 09:23:36;;;;;;;;;;;24.50;48.00;;;;;;5078264;28;19912;-79
2022/03/27 09:26:11;;;;;;;;;;;24.70;47.70;;;;;;5078177;28;19912;-78
2022/03/27 09:28:36;;;;;;;;;;;25.00;47.40;;;;;;5048811;28;19909;-78
2022/03/27 09:31:22;;;;;;;;;;;25.20;46.70;;;;;;5060524;28;19915;-81
2022/03/27 09:33:49;;;;;;;;;;;25.50;46.00;;;;;;5074714;28;20299;-76
2022/03/27 09:36:19;;;;;;;;;;;25.80;46.20;;;;;;5060128;28;20337;-77
2022/03/27 09:39:00;;;;;;;;;;;26.00;45.40;;;;;;5059044;28;19909;-76
2022/03/27 09:41:30;;;;;;;;;;;26.30;45.40;;;;;;5076542;28;19995;-73
2022/03/27 09:44:01;;;;;;;;;;;26.50;43.80;;;;;;5076991;28;19908;-73
2022/03/27 09:46:26;;;;;;;;;;;26.70;44.30;;;;;;5064498;28;19923;-75
2022/03/27 09:48:56;;;;;;;;;;;26.80;44.20;;;;;;5077754;28;19951;-75
2022/03/27 09:51:22;;;;;;;;;;;27.00;44.10;;;;;;5078169;28;20335;-76
2022/03/27 09:53:55;;;;;;;;;;;27.40;42.70;;;;;;5077917;28;19978;-76
2022/03/27 09:56:28;;;;;;;;;;;27.60;42.70;;;;;;5078033;28;19915;-79
2022/03/27 09:58:53;;;;;;;;;;;27.80;42.70;;;;;;5077654;28;20383;-78
2022/03/27 10:01:22;;;;;;;;;;;27.90;42.40;;;;;;5077575;28;19977;-77
2022/03/27 10:03:58;;;;;;;;;;;28.10;43.20;;;;;;5063929;28;20275;-77
2022/03/27 10:06:28;;;;;;;;;;;28.40;44.20;;;;;;5077453;28;20333;-77
2022/03/27 10:08:54;;;;;;;;;;;28.70;42.90;;;;;;5077410;28;19915;-76
2022/03/27 10:11:21;;;;;;;;;;;28.90;42.50;;;;;;5077892;28;19908;-75
2022/03/27 10:13:47;;;;;;;;;;;29.20;41.20;;;;;;5077575;28;19958;-75
2022/03/27 10:16:13;;;;;;;;;;;29.50;41.00;;;;;;5077707;28;19908;-77
2022/03/27 10:18:38;;;;;;;;;;;29.60;41.70;;;;;;5076593;28;19958;-79
2022/03/27 10:21:04;;;;;;;;;;;29.80;41.40;;;;;;5077596;28;19916;-78
2022/03/27 10:23:31;;;;;;;;;;;29.90;40.40;;;;;;5076493;28;20007;-75
2022/03/27 10:26:01;;;;;;;;;;;29.90;39.50;;;;;;5077485;28;19913;-72
2022/03/27 10:28:27;;;;;;;;;;;29.90;39.50;;;;;;5066160;28;19916;-75
2022/03/27 10:30:53;;;;;;;;;;;30.00;39.00;;;;;;5077265;28;19973;-75
2022/03/27 10:33:20;;;;;;;;;;;30.10;40.70;;;;;;5076881;28;19913;-75
2022/03/27 10:35:52;;;;;;;;;;;30.20;40.00;;;;;;5077258;28;19927;-76
2022/03/27 10:38:38;;;;;;;;;;;30.40;39.70;;;;;;5077203;28;19908;-75
2022/03/27 10:41:24;;;;;;;;;;;30.50;39.90;;;;;;5076705;28;19920;-76
2022/03/27 10:43:56;;;;;;;;;;;30.80;40.10;;;;;;5059568;28;19909;-75
2022/03/27 10:46:26;;;;;;;;;;;30.90;39.60;;;;;;5076891;28;19928;-76
2022/03/27 10:48:53;;;;;;;;;;;31.10;40.00;;;;;;5077101;28;20387;-75
2022/03/27 10:51:25;;;;;;;;;;;31.30;39.30;;;;;;5077301;28;20448;-76
2022/03/27 10:54:23;;;;;;;;;;;31.40;39.00;;;;;;5076957;28;19916;-75
2022/03/27 10:56:51;;;;;;;;;;;31.60;39.30;;;;;;5012931;28;19916;-76
2022/03/27 10:59:20;;;;;;;;;;;31.70;38.40;;;;;;5075998;28;19913;-75
2022/03/27 11:01:47;;;;;;;;;;;31.80;39.20;;;;;;5077176;28;19909;-77
2022/03/27 11:04:13;;;;;;;;;;;31.90;39.30;;;;;;5071108;28;19913;-76
2022/03/27 11:06:43;;;;;;;;;;;32.10;39.00;;;;;;5077295;28;19958;-76
2022/03/27 11:09:30;;;;;;;;;;;32.20;38.40;;;;;;5076827;28;19958;-75
2022/03/27 11:11:56;;;;;;;;;;;32.20;38.60;;;;;;5077067;28;19909;-75
2022/03/27 11:14:24;;;;;;;;;;;32.40;38.00;;;;;;5077253;28;19916;-75
2022/03/27 11:17:07;;;;;;;;;;;32.40;38.10;;;;;;5076581;28;19930;-75
2022/03/27 11:19:43;;;;;;;;;;;32.40;37.50;;;;;;5077072;28;19950;-76
2022/03/27 11:22:28;;;;;;;;;;;32.50;37.90;;;;;;5076889;28;19944;-75
2022/03/27 11:25:12;;;;;;;;;;;32.50;37.00;;;;;;5075938;28;19916;-75
2022/03/27 11:27:57;;;;;;;;;;;32.40;37.20;;;;;;5060574;28;19909;-78
2022/03/27 11:30:24;;;;;;;;;;;32.40;38.40;;;;;;5065491;28;19935;-76
2022/03/27 11:33:13;;;;;;;;;;;32.40;38.30;;;;;;5079783;28;19955;-76
2022/03/27 11:35:39;;;;;;;;;;;32.60;38.00;;;;;;5072143;28;20007;-76
2022/03/27 11:38:24;;;;;;;;;;;32.70;38.20;;;;;;5080345;28;20430;-76
2022/03/27 11:40:50;;;;;;;;;;;32.80;37.80;;;;;;5080019;28;19908;-74
2022/03/27 11:43:30;;;;;;;;;;;32.80;38.20;;;;;;5079251;28;19919;-73
2022/03/27 11:45:57;;;;;;;;;;;32.80;37.40;;;;;;5079794;28;19909;-76
2022/03/27 11:48:23;;;;;;;;;;;32.80;37.50;;;;;;5080047;28;19912;-76
2022/03/27 11:50:48;;;;;;;;;;;32.90;37.60;;;;;;5079853;28;19916;-75
2022/03/27 11:53:14;;;;;;;;;;;32.80;36.40;;;;;;5080061;28;20003;-76
2022/03/27 11:55:40;;;;;;;;;;;32.70;36.70;;;;;;5061624;28;19916;-73
2022/03/27 11:58:07;;;;;;;;;;;32.60;36.80;;;;;;5079985;28;19922;-75
2022/03/27 12:00:36;;;;;;;;;;;32.60;36.90;;;;;;5062084;28;19908;-75
2022/03/27 12:03:03;;;;;;;;;;;32.60;37.60;;;;;;5071100;28;19916;-75
2022/03/27 12:05:34;;;;;;;;;;;32.70;37.60;;;;;;5087003;28;19913;-76
2022/03/27 12:08:00;;;;;;;;;;;32.70;37.50;;;;;;5074618;28;19927;-75
2022/03/27 12:10:26;;;;;;;;;;;32.70;36.60;;;;;;5062129;28;19913;-77
2022/03/27 12:12:59;;;;;;;;;;;32.70;37.20;;;;;;5061852;28;20754;-77
2022/03/27 12:15:46;;;;;;;;;;;32.60;36.50;;;;;;5079466;28;19912;-77
2022/03/27 12:18:12;;;;;;;;;;;32.60;36.20;;;;;;5079409;28;19913;-77
2022/03/27 12:20:42;;;;;;;;;;;32.40;36.40;;;;;;5061475;28;19908;-77
2022/03/27 12:23:21;;;;;;;;;;;32.30;36.80;;;;;;5060478;28;20438;-77
2022/03/27 12:25:59;;;;;;;;;;;32.40;37.20;;;;;;5079371;28;19908;-76
2022/03/27 12:31:19;;;;;;;;;;;32.20;37.40;;;;;;5079313;28;19931;-77
2022/03/27 12:33:45;;;;;;;;;;;32.20;38.30;;;;;;5079207;28;19916;-73
2022/03/27 12:36:11;;;;;;;;;;;32.20;38.10;;;;;;5079197;28;19912;-74
2022/03/27 12:38:37;;;;;;;;;;;32.20;37.30;;;;;;5079387;28;21055;-73
2022/03/27 12:41:03;;;;;;;;;;;32.20;37.40;;;;;;5078677;28;19912;-75
2022/03/27 12:43:29;;;;;;;;;;;32.10;37.40;;;;;;5078408;28;19920;-78
2022/03/27 12:45:55;;;;;;;;;;;32.10;37.90;;;;;;5060762;28;20398;-80
2022/03/27 12:48:23;;;;;;;;;;;32.10;38.40;;;;;;5078872;28;19917;-71
2022/03/27 12:50:51;;;;;;;;;;;32.10;38.90;;;;;;5060832;28;19908;-72
2022/03/27 12:53:22;;;;;;;;;;;32.10;38.10;;;;;;5079021;28;19916;-76
2022/03/27 12:56:06;;;;;;;;;;;32.00;37.40;;;;;;5078691;28;19908;-71
2022/03/27 12:58:35;;;;;;;;;;;31.90;37.10;;;;;;5078333;28;20135;-71
2022/03/27 13:01:04;;;;;;;;;;;31.80;37.60;;;;;;5060857;28;19912;-75
2022/03/27 13:03:30;;;;;;;;;;;31.70;36.70;;;;;;5072467;28;19912;-80
2022/03/27 13:05:56;;;;;;;;;;;31.50;36.80;;;;;;5060528;28;19908;-85
2022/03/27 13:08:34;;;;;;;;;;;31.40;37.20;;;;;;5078873;28;19908;-79
2022/03/27 13:11:02;;;;;;;;;;;31.10;36.80;;;;;;5050724;28;19908;-74
2022/03/27 13:13:31;;;;;;;;;;;30.80;36.10;;;;;;5078661;28;19908;-72
2022/03/27 13:15:57;;;;;;;;;;;30.40;37.20;;;;;;5078651;28;19909;-73
2022/03/27 13:18:30;;;;;;;;;;;30.10;36.10;;;;;;5078059;28;19908;-72
2022/03/27 13:20:56;;;;;;;;;;;29.60;37.00;;;;;;5078472;28;20328;-72
2022/03/27 13:23:22;;;;;;;;;;;29.20;37.00;;;;;;5078186;28;19912;-71
2022/03/27 13:25:48;;;;;;;;;;;29.00;37.80;;;;;;5078217;28;19912;-72
2022/03/27 13:28:13;;;;;;;;;;;28.70;37.40;;;;;;5067713;28;19909;-73
2022/03/27 13:30:39;;;;;;;;;;;28.40;37.60;;;;;;5078363;28;19912;-72
2022/03/27 13:33:06;;;;;;;;;;;28.20;38.50;;;;;;5077563;28;19909;-73
2022/03/27 13:35:32;;;;;;;;;;;28.00;38.20;;;;;;5078140;28;20007;-79
2022/03/27 13:37:58;;;;;;;;;;;27.80;38.20;;;;;;5078062;28;19959;-71
2022/03/27 13:42:57;;;;;;;;;;;27.60;38.10;;;;;;5078116;28;20280;-72
2022/03/27 13:43:11;;;;;;;;;;;27.40;38.40;;;;;;5063497;28;19934;-78
2022/03/27 13:45:38;;;;;;;;;;;27.20;38.20;;;;;;5077952;28;19995;-75
2022/03/27 13:48:05;;;;;;;;;;;27.00;39.00;;;;;;5077431;28;19947;-77
2022/03/27 13:50:31;;;;;;;;;;;26.80;38.00;;;;;;5077921;28;19913;-80
2022/03/27 13:52:58;;;;;;;;;;;26.70;38.20;;;;;;5077538;28;20417;-76
2022/03/27 13:55:24;;;;;;;;;;;26.50;39.10;;;;;;5077045;28;19987;-77
2022/03/27 13:57:49;;;;;;;;;;;26.40;39.10;;;;;;5060008;28;19939;-77
2022/03/27 14:00:15;;;;;;;;;;;26.40;39.40;;;;;;5077857;28;19999;-78
2022/03/27 14:02:41;;;;;;;;;;;26.30;38.30;;;;;;5072003;28;20003;-78
2022/03/27 14:05:06;;;;;;;;;;;26.10;38.30;;;;;;5069062;28;20283;-78
2022/03/27 14:07:32;;;;;;;;;;;26.00;38.90;;;;;;5076612;28;19915;-78
2022/03/27 14:09:58;;;;;;;;;;;25.80;38.60;;;;;;5076143;28;20375;-78
2022/03/27 14:12:23;;;;;;;;;;;25.70;39.30;;;;;;5077745;28;19915;-78
2022/03/27 14:14:49;;;;;;;;;;;25.70;39.20;;;;;;5077957;28;19909;-78
2022/03/27 14:17:14;;;;;;;;;;;25.60;39.40;;;;;;5077269;28;20011;-78
2022/03/27 14:19:40;;;;;;;;;;;25.50;40.20;;;;;;5059720;28;19908;-78
2022/03/27 14:22:06;;;;;;;;;;;25.40;39.00;;;;;;5059622;28;19916;-78
2022/03/27 14:24:31;;;;;;;;;;;25.20;39.10;;;;;;5076157;28;19955;-78
2022/03/27 14:26:57;;;;;;;;;;;25.20;39.40;;;;;;5073821;28;19913;-77
2022/03/27 14:29:23;;;;;;;;;;;25.10;39.50;;;;;;5052321;28;19913;-77
2022/03/27 14:31:52;;;;;;;;;;;25.00;39.80;;;;;;5076909;28;20005;-76